Terminal Aerodrome Forecast
Issued by NWS Sioux Falls, SD

Home | Current Version | Previous Version | Graphics & Text | Print | Product List | Glossary On
Versions: 1 2 3 4 5 6 7 8 9 10 11 12 13 14 15 16 17 18 19 20
000
FTUS43 KFSD 211742
TAFSUX
TAF
KSUX 211742Z 2118/2218 16012G19KT P6SM SCT150
     FM212000 22010KT P6SM BKN200
     FM212100 23010KT P6SM VCTS SCT040CB BKN200
     FM212200 31006KT 4SM TSRA BKN035CB
     FM220100 33006KT 6SM SHRA VCTS OVC060CB
     FM220600 34008KT P6SM BKN040
     FM221100 34006KT P6SM SCT200=

USA.gov is the U.S. government's official web portal to all federal, state and local government web resources and services.